sensor_id;sensor_type;location;lat;lon;timestamp;pressure;altitude;pressure_sealevel;temperature;humidity
31911;BME280;18457;52.432;16.914;2023-02-22T00:02:09;100541.80;;;6.80;81.24
31911;BME280;18457;52.432;16.914;2023-02-22T00:04:43;100542.88;;;6.81;81.07
31911;BME280;18457;52.432;16.914;2023-02-22T00:07:15;100542.31;;;6.83;81.08
31911;BME280;18457;52.432;16.914;2023-02-22T00:09:46;100543.77;;;6.81;81.47
31911;BME280;18457;52.432;16.914;2023-02-22T00:12:19;100547.44;;;6.69;82.15
31911;BME280;18457;52.432;16.914;2023-02-22T00:14:50;100548.52;;;6.68;82.28
31911;BME280;18457;52.432;16.914;2023-02-22T00:17:22;100546.22;;;6.62;82.35
31911;BME280;18457;52.432;16.914;2023-02-22T00:19:54;100543.16;;;6.63;82.34
31911;BME280;18457;52.432;16.914;2023-02-22T00:22:26;100542.09;;;6.63;82.75
31911;BME280;18457;52.432;16.914;2023-02-22T00:24:58;100543.00;;;6.62;82.95
31911;BME280;18457;52.432;16.914;2023-02-22T00:27:30;100546.25;;;6.57;82.84
31911;BME280;18457;52.432;16.914;2023-02-22T00:30:02;100544.12;;;6.52;83.37
31911;BME280;18457;52.432;16.914;2023-02-22T00:32:34;100543.94;;;6.53;83.84
31911;BME280;18457;52.432;16.914;2023-02-22T00:35:06;100544.64;;;6.55;83.59
31911;BME280;18457;52.432;16.914;2023-02-22T00:37:39;100549.14;;;6.53;83.84
31911;BME280;18457;52.432;16.914;2023-02-22T00:40:13;100550.08;;;6.46;83.72
31911;BME280;18457;52.432;16.914;2023-02-22T00:42:46;100552.27;;;6.38;84.27
31911;BME280;18457;52.432;16.914;2023-02-22T00:45:20;100552.13;;;6.33;84.53
31911;BME280;18457;52.432;16.914;2023-02-22T00:47:52;100551.58;;;6.33;84.78
31911;BME280;18457;52.432;16.914;2023-02-22T00:50:27;100555.36;;;6.29;84.67
31911;BME280;18457;52.432;16.914;2023-02-22T00:53:01;100555.96;;;6.14;85.02
31911;BME280;18457;52.432;16.914;2023-02-22T00:55:36;100558.67;;;6.06;85.51
31911;BME280;18457;52.432;16.914;2023-02-22T00:58:08;100559.76;;;6.07;85.88
31911;BME280;18457;52.432;16.914;2023-02-22T01:00:41;100562.77;;;6.16;86.31
31911;BME280;18457;52.432;16.914;2023-02-22T01:03:15;100563.13;;;6.16;86.12
31911;BME280;18457;52.432;16.914;2023-02-22T01:05:48;100567.23;;;6.20;86.19
31911;BME280;18457;52.432;16.914;2023-02-22T01:08:20;100567.59;;;6.23;85.93
31911;BME280;18457;52.432;16.914;2023-02-22T01:10:55;100569.02;;;6.23;85.97
31911;BME280;18457;52.432;16.914;2023-02-22T01:13:28;100566.71;;;6.17;85.60
31911;BME280;18457;52.432;16.914;2023-02-22T01:16:02;100572.65;;;6.11;85.61
31911;BME280;18457;52.432;16.914;2023-02-22T01:18:34;100575.16;;;6.11;85.06
31911;BME280;18457;52.432;16.914;2023-02-22T01:21:06;100574.10;;;6.07;84.93
31911;BME280;18457;52.432;16.914;2023-02-22T01:23:38;100574.64;;;6.06;85.06
31911;BME280;18457;52.432;16.914;2023-02-22T01:26:10;100573.94;;;6.01;85.23
31911;BME280;18457;52.432;16.914;2023-02-22T01:28:42;100570.70;;;6.03;86.07
31911;BME280;18457;52.432;16.914;2023-02-22T01:31:14;100567.48;;;5.99;86.09
31911;BME280;18457;52.432;16.914;2023-02-22T01:33:46;100577.55;;;5.88;86.30
31911;BME280;18457;52.432;16.914;2023-02-22T01:36:20;100579.00;;;5.84;86.75
31911;BME280;18457;52.432;16.914;2023-02-22T01:38:52;100577.55;;;5.83;86.68
31911;BME280;18457;52.432;16.914;2023-02-22T01:41:23;100577.36;;;5.81;86.39
31911;BME280;18457;52.432;16.914;2023-02-22T01:43:54;100578.44;;;5.74;86.53
31911;BME280;18457;52.432;16.914;2023-02-22T01:46:27;100578.27;;;5.83;85.90
31911;BME280;18457;52.432;16.914;2023-02-22T01:48:58;100579.16;;;5.75;86.22
31911;BME280;18457;52.432;16.914;2023-02-22T01:51:34;100576.83;;;5.73;86.47
31911;BME280;18457;52.432;16.914;2023-02-22T01:54:11;100584.02;;;5.63;86.77
31911;BME280;18457;52.432;16.914;2023-02-22T01:56:49;100582.21;;;5.66;86.99
31911;BME280;18457;52.432;16.914;2023-02-22T01:59:24;100582.77;;;5.59;87.19
31911;BME280;18457;52.432;16.914;2023-02-22T02:01:54;100588.69;;;5.56;87.32
31911;BME280;18457;52.432;16.914;2023-02-22T02:04:27;100583.33;;;5.46;87.51
31911;BME280;18457;52.432;16.914;2023-02-22T02:06:59;100585.11;;;5.52;87.19
31911;BME280;18457;52.432;16.914;2023-02-22T02:09:36;100582.61;;;5.44;87.46
31911;BME280;18457;52.432;16.914;2023-02-22T02:12:11;100576.70;;;5.47;87.56
31911;BME280;18457;52.432;16.914;2023-02-22T02:14:44;100572.04;;;5.45;87.47
31911;BME280;18457;52.432;16.914;2023-02-22T02:17:18;100571.31;;;5.41;87.31
31911;BME280;18457;52.432;16.914;2023-02-22T02:19:58;100573.64;;;5.39;87.04
31911;BME280;18457;52.432;16.914;2023-02-22T02:22:40;100575.44;;;5.30;87.65
31911;BME280;18457;52.432;16.914;2023-02-22T02:25:46;100571.88;;;5.18;88.13
31911;BME280;18457;52.432;16.914;2023-02-22T02:28:41;100569.00;;;5.11;88.47
31911;BME280;18457;52.432;16.914;2023-02-22T02:31:38;100570.08;;;5.14;88.44
31911;BME280;18457;52.432;16.914;2023-02-22T02:34:20;100567.02;;;5.06;88.87
31911;BME280;18457;52.432;16.914;2023-02-22T02:36:59;100569.54;;;5.08;88.34
31911;BME280;18457;52.432;16.914;2023-02-22T02:39:37;100572.02;;;5.00;88.48
31911;BME280;18457;52.432;16.914;2023-02-22T02:42:15;100568.09;;;4.98;88.23
31911;BME280;18457;52.432;16.914;2023-02-22T02:44:53;100566.30;;;4.94;88.13
31911;BME280;18457;52.432;16.914;2023-02-22T02:47:29;100564.85;;;4.88;88.54
31911;BME280;18457;52.432;16.914;2023-02-22T02:50:06;100566.09;;;4.85;89.15
31911;BME280;18457;52.432;16.914;2023-02-22T02:52:41;100566.44;;;4.76;89.39
31911;BME280;18457;52.432;16.914;2023-02-22T02:55:16;100562.65;;;4.66;90.35
31911;BME280;18457;52.432;16.914;2023-02-22T02:57:49;100560.33;;;4.62;90.67
31911;BME280;18457;52.432;16.914;2023-02-22T03:00:27;100556.95;;;4.71;90.05
31911;BME280;18457;52.432;16.914;2023-02-22T03:03:10;100561.22;;;4.62;90.10
31911;BME280;18457;52.432;16.914;2023-02-22T03:06:07;100562.80;;;4.48;90.66
31911;BME280;18457;52.432;16.914;2023-02-22T03:08:46;100568.67;;;4.41;90.67
31911;BME280;18457;52.432;16.914;2023-02-22T03:11:27;100569.73;;;4.35;90.99
31911;BME280;18457;52.432;16.914;2023-02-22T03:14:09;100565.57;;;4.25;91.88
31911;BME280;18457;52.432;16.914;2023-02-22T03:16:46;100565.95;;;4.31;91.23
31911;BME280;18457;52.432;16.914;2023-02-22T03:19:27;100571.20;;;4.03;90.73
31911;BME280;18457;52.432;16.914;2023-02-22T03:22:09;100569.38;;;3.96;92.19
31911;BME280;18457;52.432;16.914;2023-02-22T03:24:48;100566.52;;;3.97;92.66
31911;BME280;18457;52.432;16.914;2023-02-22T03:27:26;100573.55;;;4.08;92.03
31911;BME280;18457;52.432;16.914;2023-02-22T03:30:04;100579.55;;;3.96;91.87
31911;BME280;18457;52.432;16.914;2023-02-22T03:32:41;100581.86;;;3.93;92.76
31911;BME280;18457;52.432;16.914;2023-02-22T03:35:19;100578.83;;;3.91;92.72
31911;BME280;18457;52.432;16.914;2023-02-22T03:37:55;100585.20;;;3.83;93.43
31911;BME280;18457;52.432;16.914;2023-02-22T03:40:32;100588.84;;;3.93;93.63
31911;BME280;18457;52.432;16.914;2023-02-22T03:43:08;100588.27;;;3.87;93.54
31911;BME280;18457;52.432;16.914;2023-02-22T03:45:44;100591.66;;;3.85;93.39
31911;BME280;18457;52.432;16.914;2023-02-22T03:48:24;100593.30;;;3.94;92.91
31911;BME280;18457;52.432;16.914;2023-02-22T03:50:58;100593.68;;;3.96;92.36
31911;BME280;18457;52.432;16.914;2023-02-22T03:53:35;100591.65;;;3.86;92.33
31911;BME280;18457;52.432;16.914;2023-02-22T03:56:12;100593.23;;;3.80;92.31
31911;BME280;18457;52.432;16.914;2023-02-22T03:58:48;100592.63;;;3.70;93.04
31911;BME280;18457;52.432;16.914;2023-02-22T04:01:21;100595.25;;;3.60;93.47
31911;BME280;18457;52.432;16.914;2023-02-22T04:03:54;100601.58;;;3.47;94.16
31911;BME280;18457;52.432;16.914;2023-02-22T04:06:27;100603.52;;;3.44;94.98
31911;BME280;18457;52.432;16.914;2023-02-22T04:08:57;100604.96;;;3.46;95.41
31911;BME280;18457;52.432;16.914;2023-02-22T04:11:29;100603.72;;;3.48;95.19
31911;BME280;18457;52.432;16.914;2023-02-22T04:14:02;100606.94;;;3.49;95.16
31911;BME280;18457;52.432;16.914;2023-02-22T04:16:34;100608.02;;;3.49;95.22
31911;BME280;18457;52.432;16.914;2023-02-22T04:19:09;100607.92;;;3.61;94.74
31911;BME280;18457;52.432;16.914;2023-02-22T04:21:42;100606.10;;;3.55;95.09
31911;BME280;18457;52.432;16.914;2023-02-22T04:24:21;100603.48;;;3.66;95.14
31911;BME280;18457;52.432;16.914;2023-02-22T04:26:53;100605.31;;;3.72;94.09
31911;BME280;18457;52.432;16.914;2023-02-22T04:29:26;100606.06;;;3.75;93.84
31911;BME280;18457;52.432;16.914;2023-02-22T04:31:58;100607.52;;;3.80;93.25
31911;BME280;18457;52.432;16.914;2023-02-22T04:34:30;100610.13;;;3.70;93.62
31911;BME280;18457;52.432;16.914;2023-02-22T04:37:02;100611.88;;;3.63;94.08
31911;BME280;18457;52.432;16.914;2023-02-22T04:39:34;100614.15;;;3.56;94.50
31911;BME280;18457;52.432;16.914;2023-02-22T04:42:06;100615.92;;;3.55;94.58
31911;BME280;18457;52.432;16.914;2023-02-22T04:44:38;100618.17;;;3.45;95.32
31911;BME280;18457;52.432;16.914;2023-02-22T04:47:10;100620.11;;;3.44;95.52
31911;BME280;18457;52.432;16.914;2023-02-22T04:49:42;100623.67;;;3.42;95.69
31911;BME280;18457;52.432;16.914;2023-02-22T04:52:15;100627.55;;;3.36;96.08
31911;BME280;18457;52.432;16.914;2023-02-22T04:54:46;100622.20;;;3.37;96.91
31911;BME280;18457;52.432;16.914;2023-02-22T04:57:18;100625.47;;;3.43;96.62
31911;BME280;18457;52.432;16.914;2023-02-22T04:59:50;100624.61;;;3.49;95.40
31911;BME280;18457;52.432;16.914;2023-02-22T05:02:22;100621.62;;;3.52;93.87
31911;BME280;18457;52.432;16.914;2023-02-22T05:04:54;100617.55;;;3.58;93.72
31911;BME280;18457;52.432;16.914;2023-02-22T05:07:26;100618.39;;;3.51;94.31
31911;BME280;18457;52.432;16.914;2023-02-22T05:09:58;100621.84;;;3.36;94.46
31911;BME280;18457;52.432;16.914;2023-02-22T05:12:32;100623.00;;;3.26;95.30
31911;BME280;18457;52.432;16.914;2023-02-22T05:15:05;100626.01;;;3.23;95.73
31911;BME280;18457;52.432;16.914;2023-02-22T05:17:37;100624.70;;;3.18;96.42
31911;BME280;18457;52.432;16.914;2023-02-22T05:20:16;100624.84;;;3.13;96.95
31911;BME280;18457;52.432;16.914;2023-02-22T05:22:49;100625.38;;;3.13;97.38
31911;BME280;18457;52.432;16.914;2023-02-22T05:25:22;100623.79;;;3.15;97.61
31911;BME280;18457;52.432;16.914;2023-02-22T05:27:54;100623.23;;;3.13;97.03
31911;BME280;18457;52.432;16.914;2023-02-22T05:30:29;100621.80;;;3.12;96.89
31911;BME280;18457;52.432;16.914;2023-02-22T05:33:01;100626.62;;;3.13;97.47
31911;BME280;18457;52.432;16.914;2023-02-22T05:35:33;100626.30;;;3.15;98.04
31911;BME280;18457;52.432;16.914;2023-02-22T05:38:08;100628.66;;;3.21;97.72
31911;BME280;18457;52.432;16.914;2023-02-22T05:40:41;100629.89;;;3.18;97.48
31911;BME280;18457;52.432;16.914;2023-02-22T05:43:14;100628.46;;;3.19;97.25
31911;BME280;18457;52.432;16.914;2023-02-22T05:45:46;100636.45;;;3.33;97.07
31911;BME280;18457;52.432;16.914;2023-02-22T05:48:18;100638.48;;;3.41;96.24
31911;BME280;18457;52.432;16.914;2023-02-22T05:50:52;100639.98;;;3.49;94.87
31911;BME280;18457;52.432;16.914;2023-02-22T05:53:23;100645.34;;;3.49;94.24
31911;BME280;18457;52.432;16.914;2023-02-22T05:55:55;100647.81;;;3.47;94.54
31911;BME280;18457;52.432;16.914;2023-02-22T05:58:27;100648.92;;;3.51;94.32
31911;BME280;18457;52.432;16.914;2023-02-22T06:00:59;100653.42;;;3.54;94.30
31911;BME280;18457;52.432;16.914;2023-02-22T06:03:33;100652.94;;;3.61;94.72
31911;BME280;18457;52.432;16.914;2023-02-22T06:06:06;100660.77;;;3.59;95.47
31911;BME280;18457;52.432;16.914;2023-02-22T06:08:38;100658.59;;;3.52;97.24
31911;BME280;18457;52.432;16.914;2023-02-22T06:11:11;100663.67;;;3.63;97.43
31911;BME280;18457;52.432;16.914;2023-02-22T06:13:41;100664.22;;;3.63;97.71
31911;BME280;18457;52.432;16.914;2023-02-22T06:16:13;100662.98;;;3.67;98.18
31911;BME280;18457;52.432;16.914;2023-02-22T06:18:46;100668.18;;;3.69;97.79
31911;BME280;18457;52.432;16.914;2023-02-22T06:21:17;100674.47;;;3.73;98.13
31911;BME280;18457;52.432;16.914;2023-02-22T06:23:49;100676.04;;;3.68;98.16
31911;BME280;18457;52.432;16.914;2023-02-22T06:26:21;100679.46;;;3.72;97.99
31911;BME280;18457;52.432;16.914;2023-02-22T06:28:53;100681.48;;;3.79;97.61
31911;BME280;18457;52.432;16.914;2023-02-22T06:31:25;100682.22;;;3.82;97.37
31911;BME280;18457;52.432;16.914;2023-02-22T06:33:57;100691.33;;;3.81;97.65
31911;BME280;18457;52.432;16.914;2023-02-22T06:36:29;100696.70;;;3.84;97.65
31911;BME280;18457;52.432;16.914;2023-02-22T06:39:01;100692.79;;;3.86;97.85
31911;BME280;18457;52.432;16.914;2023-02-22T06:41:37;100698.39;;;3.93;97.67
31911;BME280;18457;52.432;16.914;2023-02-22T06:44:09;100703.08;;;4.00;97.04
31911;BME280;18457;52.432;16.914;2023-02-22T06:46:47;100708.64;;;4.03;97.23
31911;BME280;18457;52.432;16.914;2023-02-22T06:49:20;100709.72;;;4.04;97.15
31911;BME280;18457;52.432;16.914;2023-02-22T06:51:52;100708.12;;;4.04;97.51
31911;BME280;18457;52.432;16.914;2023-02-22T06:54:24;100710.13;;;4.09;97.09
31911;BME280;18457;52.432;16.914;2023-02-22T06:56:57;100708.02;;;4.15;96.64
31911;BME280;18457;52.432;16.914;2023-02-22T06:59:28;100708.95;;;4.21;96.22
31911;BME280;18457;52.432;16.914;2023-02-22T07:02:00;100712.65;;;4.14;96.51
31911;BME280;18457;52.432;16.914;2023-02-22T07:04:31;100708.86;;;4.06;96.97
31911;BME280;18457;52.432;16.914;2023-02-22T07:07:06;100708.72;;;4.13;96.70
31911;BME280;18457;52.432;16.914;2023-02-22T07:09:38;100713.34;;;4.09;96.38
31911;BME280;18457;52.432;16.914;2023-02-22T07:12:10;100711.20;;;4.11;95.97
31911;BME280;18457;52.432;16.914;2023-02-22T07:14:42;100718.02;;;4.16;95.88
31911;BME280;18457;52.432;16.914;2023-02-22T07:17:14;100713.07;;;4.22;95.13
31911;BME280;18457;52.432;16.914;2023-02-22T07:19:45;100716.45;;;4.22;94.93
31911;BME280;18457;52.432;16.914;2023-02-22T07:22:17;100717.52;;;4.21;95.17
31911;BME280;18457;52.432;16.914;2023-02-22T07:24:49;100720.03;;;4.21;95.38
31911;BME280;18457;52.432;16.914;2023-02-22T07:27:23;100723.82;;;4.26;95.31
31911;BME280;18457;52.432;16.914;2023-02-22T07:29:54;100722.20;;;4.25;95.49
31911;BME280;18457;52.432;16.914;2023-02-22T07:32:26;100722.59;;;4.28;95.44
31911;BME280;18457;52.432;16.914;2023-02-22T07:34:59;100715.48;;;4.34;95.41
31911;BME280;18457;52.432;16.914;2023-02-22T07:37:32;100718.73;;;4.41;94.30
31911;BME280;18457;52.432;16.914;2023-02-22T07:40:05;100723.02;;;4.41;93.66
31911;BME280;18457;52.432;16.914;2023-02-22T07:42:50;100723.04;;;4.45;93.21
31911;BME280;18457;52.432;16.914;2023-02-22T07:45:23;100723.77;;;4.48;92.87
31911;BME280;18457;52.432;16.914;2023-02-22T07:47:56;100728.27;;;4.51;92.77
31911;BME280;18457;52.432;16.914;2023-02-22T07:50:30;100727.90;;;4.51;92.74
31911;BME280;18457;52.432;16.914;2023-02-22T07:53:04;100724.67;;;4.49;92.67
31911;BME280;18457;52.432;16.914;2023-02-22T07:55:36;100726.48;;;4.50;92.29
31911;BME280;18457;52.432;16.914;2023-02-22T07:58:11;100723.79;;;4.50;92.67
31911;BME280;18457;52.432;16.914;2023-02-22T08:00:44;100730.21;;;4.47;93.55
31911;BME280;18457;52.432;16.914;2023-02-22T08:03:20;100729.36;;;4.55;92.92
31911;BME280;18457;52.432;16.914;2023-02-22T08:05:54;100726.86;;;4.56;92.50
31911;BME280;18457;52.432;16.914;2023-02-22T08:08:27;100729.91;;;4.58;92.07
31911;BME280;18457;52.432;16.914;2023-02-22T08:10:59;100730.48;;;4.62;91.73
31911;BME280;18457;52.432;16.914;2023-02-22T08:13:31;100737.63;;;4.63;91.12
31911;BME280;18457;52.432;16.914;2023-02-22T08:16:03;100739.25;;;4.64;90.63
31911;BME280;18457;52.432;16.914;2023-02-22T08:18:35;100739.45;;;4.70;90.19
31911;BME280;18457;52.432;16.914;2023-02-22T08:21:09;100740.72;;;4.73;90.62
31911;BME280;18457;52.432;16.914;2023-02-22T08:23:40;100742.71;;;4.77;90.39
31911;BME280;18457;52.432;16.914;2023-02-22T08:26:12;100742.02;;;4.83;90.28
31911;BME280;18457;52.432;16.914;2023-02-22T08:28:48;100742.04;;;4.83;90.41
31911;BME280;18457;52.432;16.914;2023-02-22T08:31:19;100748.98;;;4.79;89.99
31911;BME280;18457;52.432;16.914;2023-02-22T08:33:51;100745.91;;;4.74;89.57
31911;BME280;18457;52.432;16.914;2023-02-22T08:36:23;100750.93;;;4.75;89.71
31911;BME280;18457;52.432;16.914;2023-02-22T08:38:55;100753.84;;;4.83;89.85
31911;BME280;18457;52.432;16.914;2023-02-22T08:41:27;100756.34;;;4.83;90.23
31911;BME280;18457;52.432;16.914;2023-02-22T08:43:59;100758.00;;;4.94;90.26
31911;BME280;18457;52.432;16.914;2023-02-22T08:46:32;100763.23;;;5.02;89.95
31911;BME280;18457;52.432;16.914;2023-02-22T08:49:04;100760.94;;;5.11;89.74
31911;BME280;18457;52.432;16.914;2023-02-22T08:51:37;100762.40;;;5.16;89.51
31911;BME280;18457;52.432;16.914;2023-02-22T08:54:08;100766.91;;;5.28;89.07
31911;BME280;18457;52.432;16.914;2023-02-22T08:56:40;100767.83;;;5.37;88.57
31911;BME280;18457;52.432;16.914;2023-02-22T08:59:12;100768.92;;;5.41;88.11
31911;BME280;18457;52.432;16.914;2023-02-22T09:01:44;100766.77;;;5.44;87.73
31911;BME280;18457;52.432;16.914;2023-02-22T09:04:16;100769.27;;;5.46;87.31
31911;BME280;18457;52.432;16.914;2023-02-22T09:06:48;100771.09;;;5.53;87.17
31911;BME280;18457;52.432;16.914;2023-02-22T09:09:21;100768.61;;;5.69;86.85
31911;BME280;18457;52.432;16.914;2023-02-22T09:11:53;100770.98;;;5.84;85.51
31911;BME280;18457;52.432;16.914;2023-02-22T09:14:25;100773.70;;;5.97;84.32
31911;BME280;18457;52.432;16.914;2023-02-22T09:16:57;100776.56;;;6.19;87.87
31911;BME280;18457;52.432;16.914;2023-02-22T09:19:28;100778.35;;;6.27;85.45
31911;BME280;18457;52.432;16.914;2023-02-22T09:22:00;100779.80;;;6.13;84.96
31911;BME280;18457;52.432;16.914;2023-02-22T09:24:32;100782.67;;;6.11;83.70
31911;BME280;18457;52.432;16.914;2023-02-22T09:27:05;100789.30;;;6.06;82.53
31911;BME280;18457;52.432;16.914;2023-02-22T09:29:39;100788.40;;;6.10;82.27
31911;BME280;18457;52.432;16.914;2023-02-22T09:32:11;100787.70;;;6.12;82.87
31911;BME280;18457;52.432;16.914;2023-02-22T09:34:44;100789.65;;;6.18;82.72
31911;BME280;18457;52.432;16.914;2023-02-22T09:37:17;100788.92;;;6.20;81.82
31911;BME280;18457;52.432;16.914;2023-02-22T09:39:50;100784.80;;;6.24;81.60
31911;BME280;18457;52.432;16.914;2023-02-22T09:42:27;100784.64;;;6.26;81.47
31911;BME280;18457;52.432;16.914;2023-02-22T09:45:05;100782.83;;;6.34;81.12
31911;BME280;18457;52.432;16.914;2023-02-22T09:47:46;100783.02;;;6.42;81.03
31911;BME280;18457;52.432;16.914;2023-02-22T09:50:23;100783.52;;;6.56;81.09
31911;BME280;18457;52.432;16.914;2023-02-22T09:53:01;100781.91;;;6.55;80.73
31911;BME280;18457;52.432;16.914;2023-02-22T09:55:37;100784.23;;;6.63;80.75
31911;BME280;18457;52.432;16.914;2023-02-22T09:58:19;100782.96;;;6.66;80.13
31911;BME280;18457;52.432;16.914;2023-02-22T10:00:57;100787.64;;;6.65;79.72
31911;BME280;18457;52.432;16.914;2023-02-22T10:03:39;100784.41;;;6.62;79.83
31911;BME280;18457;52.432;16.914;2023-02-22T10:06:20;100780.27;;;6.68;80.01
31911;BME280;18457;52.432;16.914;2023-02-22T10:08:56;100775.75;;;6.82;79.61
31911;BME280;18457;52.432;16.914;2023-02-22T10:11:43;100781.14;;;6.82;79.44
31911;BME280;18457;52.432;16.914;2023-02-22T10:14:44;100778.98;;;6.75;79.15
31911;BME280;18457;52.432;16.914;2023-02-22T10:17:26;100780.21;;;6.86;78.44
31911;BME280;18457;52.432;16.914;2023-02-22T10:20:11;100782.52;;;7.00;77.85
31911;BME280;18457;52.432;16.914;2023-02-22T10:22:58;100780.13;;;7.12;77.04
31911;BME280;18457;52.432;16.914;2023-02-22T10:25:36;100781.71;;;7.18;76.85
31911;BME280;18457;52.432;16.914;2023-02-22T10:28:14;100779.37;;;7.20;75.88
31911;BME280;18457;52.432;16.914;2023-02-22T10:30:52;100775.80;;;7.15;75.73
31911;BME280;18457;52.432;16.914;2023-02-22T10:33:29;100782.77;;;7.24;75.25
31911;BME280;18457;52.432;16.914;2023-02-22T10:36:03;100781.87;;;7.24;74.89
31911;BME280;18457;52.432;16.914;2023-02-22T10:38:36;100783.70;;;7.19;75.50
31911;BME280;18457;52.432;16.914;2023-02-22T10:41:20;100785.52;;;7.14;75.27
31911;BME280;18457;52.432;16.914;2023-02-22T10:43:54;100788.05;;;7.08;75.00
31911;BME280;18457;52.432;16.914;2023-02-22T10:46:29;100784.45;;;7.08;74.97
31911;BME280;18457;52.432;16.914;2023-02-22T10:49:04;100784.63;;;7.08;75.26
31911;BME280;18457;52.432;16.914;2023-02-22T10:51:37;100783.00;;;7.12;75.49
31911;BME280;18457;52.432;16.914;2023-02-22T10:54:21;100782.44;;;7.19;75.31
31911;BME280;18457;52.432;16.914;2023-02-22T10:56:57;100783.88;;;7.20;75.29
31911;BME280;18457;52.432;16.914;2023-02-22T10:59:31;100781.53;;;7.20;75.20
31911;BME280;18457;52.432;16.914;2023-02-22T11:02:15;100779.52;;;7.25;75.29
31911;BME280;18457;52.432;16.914;2023-02-22T11:04:51;100780.06;;;7.28;74.92
31911;BME280;18457;52.432;16.914;2023-02-22T11:07:26;100774.99;;;7.34;75.12
31911;BME280;18457;52.432;16.914;2023-02-22T11:10:01;100776.05;;;7.38;74.33
31911;BME280;18457;52.432;16.914;2023-02-22T11:12:36;100775.48;;;7.43;73.66
31911;BME280;18457;52.432;16.914;2023-02-22T11:15:28;100769.91;;;7.44;73.33
31911;BME280;18457;52.432;16.914;2023-02-22T11:18:00;100771.68;;;7.47;73.87
31911;BME280;18457;52.432;16.914;2023-02-22T11:20:36;100776.17;;;7.48;74.05
31911;BME280;18457;52.432;16.914;2023-02-22T11:23:10;100771.89;;;7.42;73.37
31911;BME280;18457;52.432;16.914;2023-02-22T11:25:43;100767.59;;;7.39;73.68
31911;BME280;18457;52.432;16.914;2023-02-22T11:28:20;100770.65;;;7.37;73.72
31911;BME280;18457;52.432;16.914;2023-02-22T11:31:12;100768.00;;;7.31;73.94
31911;BME280;18457;52.432;16.914;2023-02-22T11:33:53;100763.34;;;7.30;73.70
31911;BME280;18457;52.432;16.914;2023-02-22T11:36:34;100762.80;;;7.26;73.79
31911;BME280;18457;52.432;16.914;2023-02-22T11:39:21;100760.98;;;7.31;73.72
31911;BME280;18457;52.432;16.914;2023-02-22T11:41:55;100762.80;;;7.32;73.83
31911;BME280;18457;52.432;16.914;2023-02-22T11:44:28;100762.40;;;7.36;73.32
31911;BME280;18457;52.432;16.914;2023-02-22T11:47:02;100762.05;;;7.34;73.20
31911;BME280;18457;52.432;16.914;2023-02-22T11:49:38;100760.09;;;7.31;73.40
31911;BME280;18457;52.432;16.914;2023-02-22T11:52:19;100762.98;;;7.25;73.72
31911;BME280;18457;52.432;16.914;2023-02-22T11:55:11;100765.30;;;7.29;73.41
31911;BME280;18457;52.432;16.914;2023-02-22T11:58:24;100765.48;;;7.29;73.01
31911;BME280;18457;52.432;16.914;2023-02-22T12:01:03;100764.95;;;7.31;72.53
31911;BME280;18457;52.432;16.914;2023-02-22T12:06:57;100768.39;;;7.23;72.52
31911;BME280;18457;52.432;16.914;2023-02-22T12:09:40;100766.06;;;7.24;72.72
31911;BME280;18457;52.432;16.914;2023-02-22T12:12:23;100763.88;;;7.26;72.35
31911;BME280;18457;52.432;16.914;2023-02-22T12:15:04;100764.23;;;7.29;72.32
31911;BME280;18457;52.432;16.914;2023-02-22T12:17:47;100764.04;;;7.32;72.61
31911;BME280;18457;52.432;16.914;2023-02-22T12:20:33;100763.14;;;7.31;72.11
31911;BME280;18457;52.432;16.914;2023-02-22T12:23:17;100761.86;;;7.36;71.77
31911;BME280;18457;52.432;16.914;2023-02-22T12:25:58;100765.25;;;7.39;70.90
31911;BME280;18457;52.432;16.914;2023-02-22T12:28:35;100765.79;;;7.40;70.53
31911;BME280;18457;52.432;16.914;2023-02-22T12:31:17;100762.91;;;7.41;70.28
31911;BME280;18457;52.432;16.914;2023-02-22T12:33:57;100764.69;;;7.44;70.10
31911;BME280;18457;52.432;16.914;2023-02-22T12:36:37;100762.34;;;7.48;70.51
31911;BME280;18457;52.432;16.914;2023-02-22T12:39:26;100760.02;;;7.45;70.33
31911;BME280;18457;52.432;16.914;2023-02-22T12:42:16;100760.16;;;7.50;70.33
31911;BME280;18457;52.432;16.914;2023-02-22T12:44:53;100753.64;;;7.59;69.66
31911;BME280;18457;52.432;16.914;2023-02-22T12:47:33;100751.98;;;7.67;69.21
31911;BME280;18457;52.432;16.914;2023-02-22T12:50:14;100747.45;;;7.69;68.74
31911;BME280;18457;52.432;16.914;2023-02-22T12:52:52;100750.98;;;7.77;68.45
31911;BME280;18457;52.432;16.914;2023-02-22T12:55:32;100753.27;;;7.85;68.59
31911;BME280;18457;52.432;16.914;2023-02-22T12:58:13;100755.58;;;7.91;68.31
31911;BME280;18457;52.432;16.914;2023-02-22T13:00:53;100757.36;;;7.92;67.79
31911;BME280;18457;52.432;16.914;2023-02-22T13:03:32;100759.52;;;7.91;67.64
31911;BME280;18457;52.432;16.914;2023-02-22T13:06:16;100764.13;;;8.00;67.62
31911;BME280;18457;52.432;16.914;2023-02-22T13:09:02;100766.50;;;7.97;67.47
31911;BME280;18457;52.432;16.914;2023-02-22T13:11:42;100766.14;;;7.95;67.47
31911;BME280;18457;52.432;16.914;2023-02-22T13:14:32;100768.55;;;7.87;67.45
31911;BME280;18457;52.432;16.914;2023-02-22T13:17:12;100760.84;;;7.84;67.89
31911;BME280;18457;52.432;16.914;2023-02-22T13:19:56;100763.20;;;7.79;68.30
31911;BME280;18457;52.432;16.914;2023-02-22T13:22:35;100760.31;;;7.83;67.86
31911;BME280;18457;52.432;16.914;2023-02-22T13:25:15;100756.90;;;7.81;67.70
31911;BME280;18457;52.432;16.914;2023-02-22T13:27:57;100756.57;;;7.77;68.11
31911;BME280;18457;52.432;16.914;2023-02-22T13:30:38;100758.02;;;7.74;67.38
31911;BME280;18457;52.432;16.914;2023-02-22T13:33:23;100756.95;;;7.74;67.93
31911;BME280;18457;52.432;16.914;2023-02-22T13:36:18;100754.90;;;7.59;67.32
31911;BME280;18457;52.432;16.914;2023-02-22T13:39:14;100758.95;;;7.44;67.40